Αρχική σελίδα
METAR-TAF:

METAR-TAF

Αεροδρόμια :

Malakula, Βανουάτου

γεωγραφικό πλάτος: 16-27-26S, γεωγραφικό μήκος: 167-49-42E, υψόμετρο: 2 μ

METAR: λείπει

Χρόνος: 19:17 (08:17 UTC)

Πρόγνωση Καιρού

Η αναφορά έγινε 3 ώρες και 17 λεπτά πριν, στις 05:00 UTC
Η πρόγνωση ισχύει από τις 26 στις 06 UTC έως τις 27 στις 06 UTC
Άνεμος 10 kt από Α/NA
Ορατότητα 10 χλμ και άνω
Διάσπαρτα νέφη σε ύψος 2000 πόδια
Αρκετά νέφη σε ύψος 4000 πόδια
Πιθανότητα 40%
μεταξύ IN και TE UTC
Ορατότητα: 9000 μ
Διάσπαρτα νέφη σε ύψος 1200 πόδια
Αρκετά νέφη σε ύψος 3800 πόδια
Νεφοσκεπής σε ύψος 9000 πόδια
Όμβροι,

TAF: NVSL 260500Z 2606/2706 12010KT 9999 SCT020 BKN040 PROB40 INTER 2606/2612 9000 SHRA SCT012 BKN038 OVC090

Μετεωρολογικές αναφορές και προγνώσεις για περισσότερα από 4000 αεροδρόμια (δελτία METAR και TAF).

Οι διαθέσιμοι σταθμοί απεικονίζονται στο χάρτη με κίτρινες και κόκκινες κουκκίδες.

Μετακινήστε το ποντίκι πάνω από τις κουκκίδες για να δείτε το όνομα του σταθμού.

Στη συνέχεια, κάντε κλικ για να δείτε τις μετεωρολογικές αναφορές και τις προγνώσεις καιρού.

Για να αλλάξετε το χάρτη: κάντε κλικ στα πράσινα κουμπιά με τον μαύρο σταυρό για να ζουμάρετε, στο πράσινο κουμπί με την παύλα για να αφαιρέσετε το ζουμ ή στα πράσινα βέλη για να αντιπαραβάλλετε χάρτες.


METAR-TAF: